createdAt,value
2018-04-24T00:00:00.643Z,6.87
2018-04-24T00:02:28.991Z,6.47
2018-04-24T00:04:57.421Z,6.93
2018-04-24T00:07:26.622Z,6.53
2018-04-24T00:09:55.000Z,6.50
2018-04-24T00:12:22.437Z,6.47
2018-04-24T00:14:49.979Z,6.60
2018-04-24T00:17:17.604Z,6.10
2018-04-24T00:19:45.117Z,6.40
2018-04-24T00:22:13.705Z,6.43
2018-04-24T00:24:41.235Z,6.37
2018-04-24T00:27:09.588Z,6.40
2018-04-24T00:29:37.112Z,6.17
2018-04-24T00:32:06.672Z,6.10
2018-04-24T00:34:35.911Z,5.73
2018-04-24T00:37:03.469Z,6.10
2018-04-24T00:39:31.828Z,5.70
2018-04-24T00:42:02.338Z,5.47
2018-04-24T00:44:29.848Z,6.10
2018-04-24T00:46:58.366Z,6.13
2018-04-24T00:49:26.822Z,5.77
2018-04-24T00:51:54.370Z,6.10
2018-04-24T00:54:21.881Z,6.23
2018-04-24T00:56:49.447Z,6.00
2018-04-24T00:59:17.002Z,5.40
2018-04-24T01:01:44.517Z,5.73
2018-04-24T01:04:12.203Z,5.80
2018-04-24T01:06:40.783Z,5.57
2018-04-24T01:09:08.422Z,5.57
2018-04-24T01:11:36.704Z,6.20
2018-04-24T01:14:04.986Z,5.70
2018-04-24T01:16:34.197Z,6.20
2018-04-24T01:19:03.399Z,6.10
2018-04-24T01:21:32.602Z,6.23
2018-04-24T01:24:00.894Z,6.30
2018-04-24T01:26:28.426Z,6.30
2018-04-24T01:28:56.063Z,6.97
2018-04-24T01:31:23.589Z,6.40
2018-04-24T01:33:51.155Z,7.03
2018-04-24T01:36:18.693Z,7.33
2018-04-24T01:38:46.962Z,6.80
2018-04-24T01:41:15.432Z,6.67
2018-04-24T01:44:01.562Z,7.57
2018-04-24T01:49:10.572Z,7.73
2018-04-24T01:51:38.187Z,7.33
2018-04-24T01:54:05.695Z,7.57
2018-04-24T01:56:33.204Z,7.30
2018-04-24T01:59:01.686Z,8.13
2018-04-24T02:01:29.310Z,7.50
2018-04-24T02:03:57.754Z,8.17
2018-04-24T02:06:25.350Z,7.23
2018-04-24T02:08:53.779Z,7.57
2018-04-24T02:11:22.067Z,7.67
2018-04-24T02:13:49.575Z,8.03
2018-04-24T02:16:17.953Z,8.70
2018-04-24T02:18:46.367Z,7.47
2018-04-24T02:21:13.955Z,7.30
2018-04-24T02:23:42.240Z,6.60
2018-04-24T02:26:10.522Z,7.63
2018-04-24T02:28:39.875Z,7.47
2018-04-24T02:31:08.353Z,7.80
2018-04-24T02:33:35.875Z,7.33
2018-04-24T02:36:04.185Z,9.20
2018-04-24T02:38:32.659Z,11.83
2018-04-24T02:41:00.305Z,12.70
2018-04-24T02:43:29.533Z,11.17
2018-04-24T02:45:57.924Z,12.50
2018-04-24T02:48:25.449Z,13.07
2018-04-24T02:50:55.365Z,14.13
2018-04-24T02:53:22.925Z,12.20
2018-04-24T02:55:50.466Z,13.97
2018-04-24T02:58:18.999Z,15.07
2018-04-24T03:00:46.605Z,15.80
2018-04-24T03:03:16.087Z,15.00
2018-04-24T03:05:43.749Z,11.20
2018-04-24T03:08:13.317Z,12.33
2018-04-24T03:10:42.789Z,12.47
2018-04-24T03:13:10.380Z,13.43
2018-04-24T03:15:39.563Z,10.87
2018-04-24T03:18:07.103Z,11.03
2018-04-24T03:20:34.611Z,10.30
2018-04-24T03:23:02.142Z,11.27
2018-04-24T03:25:29.748Z,12.07
2018-04-24T03:27:58.136Z,14.97
2018-04-24T03:30:26.643Z,14.73
2018-04-24T03:32:54.938Z,15.33
2018-04-24T03:35:22.448Z,14.27
2018-04-24T03:37:50.950Z,14.80
2018-04-24T03:40:18.445Z,14.40
2018-04-24T03:45:47.249Z,14.40
2018-04-24T03:48:14.804Z,12.00
2018-04-24T03:50:42.496Z,11.97
2018-04-24T03:53:10.163Z,11.40
2018-04-24T03:55:37.676Z,13.73
2018-04-24T03:58:05.250Z,14.70
2018-04-24T04:00:32.849Z,13.93
2018-04-24T04:03:00.370Z,13.43
2018-04-24T04:05:27.984Z,15.17
2018-04-24T04:07:56.368Z,14.37
2018-04-24T04:10:23.890Z,15.67
2018-04-24T04:12:51.448Z,14.53
2018-04-24T04:15:22.936Z,15.27
2018-04-24T04:18:02.197Z,15.53
2018-04-24T04:20:42.743Z,15.47
2018-04-24T04:23:22.203Z,17.33
2018-04-24T04:25:49.713Z,17.07
2018-04-24T04:28:18.001Z,17.67
2018-04-24T04:30:46.312Z,15.27
2018-04-24T04:33:13.908Z,15.60
2018-04-24T04:35:42.258Z,16.53
2018-04-24T04:38:10.701Z,15.83
2018-04-24T04:40:38.227Z,14.13
2018-04-24T04:43:05.843Z,13.53
2018-04-24T04:45:52.125Z,13.73
2018-04-24T04:48:19.688Z,10.43
2018-04-24T04:53:29.154Z,8.00
2018-04-24T04:55:56.660Z,9.80
2018-04-24T04:58:24.206Z,7.97
2018-04-24T05:00:51.852Z,7.90
2018-04-24T05:03:20.378Z,8.20
2018-04-24T05:05:48.974Z,6.73
2018-04-24T05:08:16.596Z,7.17
2018-04-24T05:10:44.950Z,5.13
2018-04-24T05:13:13.241Z,5.17
2018-04-24T05:15:43.204Z,4.87
2018-04-24T05:18:10.761Z,4.90
2018-04-24T05:20:39.197Z,4.43
2018-04-24T05:23:07.714Z,4.57
2018-04-24T05:25:36.250Z,4.20
2018-04-24T05:28:03.744Z,4.10
2018-04-24T05:30:31.386Z,4.07
2018-04-24T05:32:58.893Z,4.60
2018-04-24T05:35:27.216Z,4.30
2018-04-24T05:37:54.733Z,4.20
2018-04-24T05:40:22.246Z,4.17
2018-04-24T05:42:49.924Z,3.57
2018-04-24T05:45:17.513Z,3.80
2018-04-24T05:47:45.901Z,3.30
2018-04-24T05:50:13.423Z,3.70
2018-04-24T05:52:41.852Z,3.37
2018-04-24T05:55:09.503Z,3.10
2018-04-24T05:57:37.798Z,3.63
2018-04-24T06:00:05.326Z,3.53
2018-04-24T06:02:33.772Z,5.70
2018-04-24T06:05:01.405Z,6.53
2018-04-24T06:07:28.936Z,6.00
2018-04-24T06:09:56.452Z,6.67
2018-04-24T06:12:26.511Z,5.90
2018-04-24T06:14:54.105Z,5.20
2018-04-24T06:17:21.658Z,5.73
2018-04-24T06:19:49.210Z,4.50
2018-04-24T06:22:16.723Z,4.07
2018-04-24T06:24:44.221Z,4.10
2018-04-24T06:27:11.847Z,4.47
2018-04-24T06:29:40.129Z,4.40
2018-04-24T06:32:07.753Z,4.20
2018-04-24T06:34:36.183Z,6.37
2018-04-24T06:37:03.766Z,6.50
2018-04-24T06:39:32.242Z,5.43
2018-04-24T06:42:00.522Z,6.30
2018-04-24T06:44:28.832Z,6.43
2018-04-24T06:46:56.427Z,6.17
2018-04-24T06:49:23.983Z,6.10
2018-04-24T06:51:51.499Z,6.10
2018-04-24T06:54:20.709Z,6.13
2018-04-24T06:56:50.197Z,6.40
2018-04-24T06:59:17.745Z,6.03
2018-04-24T07:01:45.319Z,6.13
2018-04-24T07:04:13.790Z,7.30
2018-04-24T07:07:01.035Z,7.37
2018-04-24T07:09:29.658Z,6.30
2018-04-24T07:11:57.183Z,6.77
2018-04-24T07:17:23.177Z,7.70
2018-04-24T07:19:51.870Z,8.37
2018-04-24T07:22:19.488Z,8.27
2018-04-24T07:24:46.902Z,7.90
2018-04-24T07:27:14.531Z,7.27
2018-04-24T07:29:42.011Z,7.73
2018-04-24T07:32:10.610Z,8.23
2018-04-24T07:34:40.043Z,7.77
2018-04-24T07:37:07.628Z,6.97
2018-04-24T07:39:36.055Z,7.00
2018-04-24T07:42:03.614Z,6.63
2018-04-24T07:44:31.266Z,7.20
2018-04-24T07:46:59.724Z,7.23
2018-04-24T07:49:27.244Z,7.10
2018-04-24T07:51:55.529Z,7.80
2018-04-24T07:54:23.053Z,7.30
2018-04-24T07:56:50.623Z,7.20
2018-04-24T07:59:36.044Z,7.27
2018-04-24T08:02:04.496Z,7.50
2018-04-24T08:04:32.042Z,7.60
2018-04-24T08:10:02.289Z,8.57
2018-04-24T08:12:29.901Z,8.60
2018-04-24T08:14:57.503Z,8.90
2018-04-24T08:17:25.074Z,8.53
2018-04-24T08:19:52.702Z,8.60
2018-04-24T08:22:20.263Z,8.13
2018-04-24T08:24:47.800Z,8.90
2018-04-24T08:27:15.568Z,8.77
2018-04-24T08:29:43.101Z,9.23
2018-04-24T08:32:10.684Z,8.03
2018-04-24T08:34:38.267Z,9.30
2018-04-24T08:37:05.771Z,9.43
2018-04-24T08:39:33.267Z,10.23
2018-04-24T08:42:00.780Z,9.47
2018-04-24T08:44:30.308Z,9.83
2018-04-24T08:46:58.834Z,10.57
2018-04-24T08:49:26.997Z,10.53
2018-04-24T08:51:54.507Z,9.80
2018-04-24T08:54:22.010Z,9.37
2018-04-24T08:56:50.277Z,10.97
2018-04-24T08:59:17.908Z,10.30
2018-04-24T09:01:45.401Z,9.60
2018-04-24T09:04:12.993Z,9.47
2018-04-24T09:06:40.570Z,9.83
2018-04-24T09:09:08.098Z,9.43
2018-04-24T09:11:35.653Z,8.73
2018-04-24T09:14:03.202Z,9.60
2018-04-24T09:16:32.943Z,9.67
2018-04-24T09:19:00.457Z,9.37
2018-04-24T09:21:28.103Z,9.90
2018-04-24T09:23:55.653Z,9.13
2018-04-24T09:26:24.820Z,10.07
2018-04-24T09:28:52.365Z,7.87
2018-04-24T09:31:19.901Z,9.97
2018-04-24T09:33:47.529Z,9.27
2018-04-24T09:36:15.997Z,8.90
2018-04-24T09:38:43.537Z,9.87
2018-04-24T09:41:12.082Z,9.77
2018-04-24T09:43:40.414Z,9.27
2018-04-24T09:46:08.050Z,10.47
2018-04-24T09:48:36.713Z,10.67
2018-04-24T09:51:04.250Z,9.67
2018-04-24T09:53:31.818Z,9.83
2018-04-24T09:55:59.391Z,9.20
2018-04-24T09:58:26.981Z,10.20
2018-04-24T10:00:54.579Z,10.17
2018-04-24T10:03:23.058Z,10.17
2018-04-24T10:05:50.637Z,9.97
2018-04-24T10:08:18.174Z,10.93
2018-04-24T10:10:46.260Z,9.97
2018-04-24T10:13:13.828Z,10.33
2018-04-24T10:15:41.943Z,9.30
2018-04-24T10:18:09.460Z,10.00
2018-04-24T10:20:36.983Z,11.67
2018-04-24T10:23:04.502Z,10.40
2018-04-24T10:25:32.039Z,9.77
2018-04-24T10:28:00.316Z,10.33
2018-04-24T10:30:29.613Z,9.17
2018-04-24T10:32:57.918Z,9.63
2018-04-24T10:35:45.023Z,9.30
2018-04-24T10:38:17.045Z,9.57
2018-04-24T10:43:27.681Z,9.60
2018-04-24T10:45:55.254Z,9.70
2018-04-24T10:48:22.889Z,10.87
2018-04-24T10:50:51.234Z,11.10
2018-04-24T10:53:18.745Z,10.00
2018-04-24T10:55:47.053Z,9.70
2018-04-24T10:58:14.558Z,10.00
2018-04-24T11:00:42.132Z,10.57
2018-04-24T11:03:09.763Z,9.77
2018-04-24T11:05:37.271Z,10.60
2018-04-24T11:08:04.885Z,10.33
2018-04-24T11:10:32.423Z,9.73
2018-04-24T11:12:59.947Z,10.83
2018-04-24T11:15:27.470Z,10.20
2018-04-24T11:17:54.999Z,9.63
2018-04-24T11:20:23.309Z,10.13
2018-04-24T11:22:50.900Z,9.27
2018-04-24T11:25:18.446Z,10.70
2018-04-24T11:27:47.723Z,9.53
2018-04-24T11:30:16.973Z,9.57
2018-04-24T11:32:45.485Z,9.17
2018-04-24T11:35:13.078Z,7.87
2018-04-24T11:37:46.192Z,9.17
2018-04-24T11:40:14.713Z,9.27
2018-04-24T11:42:43.146Z,9.00
2018-04-24T11:45:10.698Z,9.13
2018-04-24T11:47:39.111Z,9.33
2018-04-24T11:50:08.634Z,8.43
2018-04-24T11:52:36.139Z,9.10
2018-04-24T11:55:03.692Z,8.20
2018-04-24T11:57:32.156Z,8.33
2018-04-24T11:59:59.758Z,8.57
2018-04-24T12:02:27.368Z,8.50
2018-04-24T12:04:54.925Z,9.43
2018-04-24T12:07:22.458Z,8.97
2018-04-24T12:09:49.978Z,8.97
2018-04-24T12:12:18.396Z,9.03
2018-04-24T12:14:46.052Z,7.87
2018-04-24T12:17:13.617Z,7.63
2018-04-24T12:19:41.181Z,8.30
2018-04-24T12:22:08.850Z,7.33
2018-04-24T12:24:36.515Z,8.23
2018-04-24T12:30:03.263Z,7.73
2018-04-24T12:32:30.795Z,7.97
2018-04-24T12:34:58.372Z,7.93
2018-04-24T12:37:26.842Z,8.00
2018-04-24T12:39:54.436Z,8.10
2018-04-24T12:42:22.086Z,8.53
2018-04-24T12:44:49.745Z,8.27
2018-04-24T12:47:17.297Z,7.70
2018-04-24T12:49:44.929Z,7.23
2018-04-24T12:52:12.518Z,7.03
2018-04-24T12:54:40.078Z,6.87
2018-04-24T12:57:07.739Z,6.70
2018-04-24T12:59:35.278Z,8.50
2018-04-24T13:02:02.834Z,7.57
2018-04-24T13:04:31.401Z,8.27
2018-04-24T13:06:58.912Z,8.33
2018-04-24T13:09:27.314Z,8.57
2018-04-24T13:11:54.887Z,7.27
2018-04-24T13:14:22.480Z,7.50
2018-04-24T13:16:50.829Z,8.27
2018-04-24T13:19:18.367Z,8.37
2018-04-24T13:21:45.963Z,8.07
2018-04-24T13:24:13.545Z,8.03
2018-04-24T13:26:41.064Z,7.63
2018-04-24T13:29:09.396Z,7.70
2018-04-24T13:31:38.995Z,7.83
2018-04-24T13:34:06.581Z,7.90
2018-04-24T13:36:34.150Z,7.70
2018-04-24T13:39:03.517Z,7.67
2018-04-24T13:41:31.167Z,8.00
2018-04-24T13:43:59.467Z,7.07
2018-04-24T13:46:26.992Z,6.90
2018-04-24T13:48:54.566Z,7.27
2018-04-24T13:51:22.030Z,7.10
2018-04-24T13:53:51.598Z,6.80
2018-04-24T13:56:20.030Z,6.13
2018-04-24T13:58:48.345Z,6.30
2018-04-24T14:01:16.899Z,6.93
2018-04-24T14:03:46.127Z,7.47
2018-04-24T14:06:13.727Z,6.50
2018-04-24T14:08:41.337Z,6.53
2018-04-24T14:11:09.618Z,5.90
2018-04-24T14:13:39.782Z,6.40
2018-04-24T14:16:25.226Z,6.03
2018-04-24T14:21:32.926Z,5.77
2018-04-24T14:24:00.431Z,6.03
2018-04-24T14:26:29.957Z,5.83
2018-04-24T14:28:58.478Z,5.17
2018-04-24T14:31:26.932Z,5.37
2018-04-24T14:33:55.417Z,4.70
2018-04-24T14:36:23.001Z,4.67
2018-04-24T14:38:50.567Z,4.67
2018-04-24T14:41:18.107Z,4.77
2018-04-24T14:43:45.762Z,4.37
2018-04-24T14:46:13.285Z,4.13
2018-04-24T14:48:41.546Z,4.23
2018-04-24T14:51:09.142Z,3.87
2018-04-24T14:53:36.757Z,4.17
2018-04-24T14:56:04.266Z,4.37
2018-04-24T14:58:32.566Z,4.20
2018-04-24T15:01:00.643Z,4.30
2018-04-24T15:03:28.157Z,3.23
2018-04-24T15:05:55.775Z,3.33
2018-04-24T15:08:24.234Z,3.67
2018-04-24T15:10:52.609Z,3.90
2018-04-24T15:13:20.186Z,3.70
2018-04-24T15:15:49.620Z,3.00
2018-04-24T15:18:19.048Z,3.67
2018-04-24T15:20:46.616Z,3.43
2018-04-24T15:23:14.198Z,3.57
2018-04-24T15:25:41.760Z,3.67
2018-04-24T15:28:10.280Z,3.83
2018-04-24T15:30:37.866Z,3.80
2018-04-24T15:33:05.467Z,3.63
2018-04-24T15:35:33.113Z,3.63
2018-04-24T15:38:00.654Z,3.80
2018-04-24T15:40:28.269Z,4.50
2018-04-24T15:42:59.709Z,3.80
2018-04-24T15:45:27.245Z,4.10
2018-04-24T15:47:54.845Z,3.80
2018-04-24T15:50:23.273Z,3.50
2018-04-24T15:52:51.773Z,3.27
2018-04-24T15:55:19.299Z,3.73
2018-04-24T15:57:46.831Z,3.20
2018-04-24T16:00:17.321Z,3.43
2018-04-24T16:02:44.919Z,3.37
2018-04-24T16:05:12.427Z,3.20
2018-04-24T16:07:39.995Z,3.93
2018-04-24T16:10:07.559Z,3.30
2018-04-24T16:12:35.076Z,3.43
2018-04-24T16:15:02.577Z,3.53
2018-04-24T16:17:30.141Z,3.10
2018-04-24T16:19:58.583Z,3.07
2018-04-24T16:22:27.049Z,2.80
2018-04-24T16:24:54.605Z,3.03
2018-04-24T16:27:22.894Z,3.57
2018-04-24T16:29:51.429Z,3.10
2018-04-24T16:32:19.185Z,3.10
2018-04-24T16:34:46.733Z,3.07
2018-04-24T16:37:14.354Z,3.00
2018-04-24T16:39:41.841Z,3.43
2018-04-24T16:42:09.348Z,3.20
2018-04-24T16:44:36.912Z,2.97
2018-04-24T16:47:04.504Z,3.17
2018-04-24T16:49:32.031Z,2.80
2018-04-24T16:51:59.527Z,2.93
2018-04-24T16:54:27.096Z,2.53
2018-04-24T16:56:55.508Z,3.17
2018-04-24T16:59:23.020Z,3.30
2018-04-24T17:01:50.664Z,2.97
2018-04-24T17:04:18.169Z,2.50
2018-04-24T17:06:45.657Z,2.87
2018-04-24T17:09:13.219Z,2.80
2018-04-24T17:11:41.503Z,3.03
2018-04-24T17:14:09.909Z,3.20
2018-04-24T17:16:37.447Z,3.03
2018-04-24T17:19:05.806Z,3.00
2018-04-24T17:21:33.321Z,3.07
2018-04-24T17:24:00.830Z,2.87
2018-04-24T17:26:28.388Z,3.43
2018-04-24T17:28:57.910Z,3.00
2018-04-24T17:31:25.414Z,2.73
2018-04-24T17:33:52.931Z,2.70
2018-04-24T17:36:20.437Z,3.00
2018-04-24T17:38:48.017Z,3.00
2018-04-24T17:41:17.427Z,2.50
2018-04-24T17:43:44.938Z,2.63
2018-04-24T17:46:12.472Z,2.70
2018-04-24T17:48:40.033Z,2.97
2018-04-24T17:51:09.477Z,2.87
2018-04-24T17:53:37.666Z,3.47
2018-04-24T17:56:05.181Z,3.03
2018-04-24T17:58:32.683Z,3.00
2018-04-24T18:01:00.279Z,2.90
2018-04-24T18:03:28.877Z,2.80
2018-04-24T18:05:56.406Z,3.20
2018-04-24T18:08:24.882Z,3.53
2018-04-24T18:10:52.406Z,3.30
2018-04-24T18:13:19.910Z,2.80
2018-04-24T18:15:47.455Z,3.23
2018-04-24T18:18:15.049Z,3.10
2018-04-24T18:20:44.606Z,4.03
2018-04-24T18:23:13.097Z,3.97
2018-04-24T18:25:40.708Z,3.23
2018-04-24T18:28:08.263Z,3.33
2018-04-24T18:30:35.785Z,2.90
2018-04-24T18:33:03.300Z,3.43
2018-04-24T18:35:30.866Z,3.77
2018-04-24T18:37:59.286Z,4.17
2018-04-24T18:40:27.728Z,3.50
2018-04-24T18:42:56.444Z,4.60
2018-04-24T18:45:24.880Z,4.20
2018-04-24T18:47:52.398Z,5.10
2018-04-24T18:50:19.968Z,3.90
2018-04-24T18:52:47.590Z,3.63
2018-04-24T18:55:15.991Z,4.33
2018-04-24T18:58:03.303Z,4.07
2018-04-24T19:03:30.820Z,4.13
2018-04-24T19:05:59.240Z,4.03
2018-04-24T19:08:26.817Z,3.77
2018-04-24T19:10:54.344Z,3.60
2018-04-24T19:13:21.935Z,3.57
2018-04-24T19:15:52.794Z,3.83
2018-04-24T19:18:26.642Z,4.27
2018-04-24T19:20:54.154Z,3.53
2018-04-24T19:23:21.655Z,3.40
2018-04-24T19:25:49.205Z,3.73
2018-04-24T19:28:16.750Z,3.70
2018-04-24T19:30:44.347Z,3.33
2018-04-24T19:33:11.928Z,4.37
2018-04-24T19:35:41.531Z,3.70
2018-04-24T19:38:09.027Z,4.00
2018-04-24T19:40:42.258Z,3.47
2018-04-24T19:43:10.540Z,3.67
2018-04-24T19:45:39.760Z,3.40
2018-04-24T19:48:08.207Z,3.60
2018-04-24T19:50:36.738Z,3.70
2018-04-24T19:53:04.264Z,4.03
2018-04-24T19:55:31.777Z,4.13
2018-04-24T19:58:00.274Z,3.77
2018-04-24T20:00:27.889Z,3.57
2018-04-24T20:02:58.124Z,3.40
2018-04-24T20:05:26.589Z,3.67
2018-04-24T20:07:55.090Z,3.47
2018-04-24T20:10:23.399Z,4.07
2018-04-24T20:12:51.056Z,3.30
2018-04-24T20:15:20.530Z,3.20
2018-04-24T20:17:48.144Z,4.20
2018-04-24T20:20:15.770Z,4.00
2018-04-24T20:22:43.363Z,3.90
2018-04-24T20:25:10.894Z,3.33
2018-04-24T20:27:38.477Z,3.87
2018-04-24T20:30:08.606Z,3.80
2018-04-24T20:32:36.101Z,4.50
2018-04-24T20:35:04.711Z,3.47
2018-04-24T20:37:32.236Z,3.37
2018-04-24T20:40:01.725Z,3.13
2018-04-24T20:42:30.984Z,3.80
2018-04-24T20:44:58.516Z,3.30
2018-04-24T20:47:26.112Z,3.33
2018-04-24T20:49:53.728Z,3.63
2018-04-24T20:52:21.377Z,3.53
2018-04-24T20:54:48.892Z,3.73
2018-04-24T20:57:16.483Z,3.97
2018-04-24T20:59:44.917Z,3.60
2018-04-24T21:02:12.412Z,3.77
2018-04-24T21:04:40.030Z,4.30
2018-04-24T21:07:08.538Z,3.93
2018-04-24T21:09:36.958Z,4.07
2018-04-24T21:12:06.412Z,3.83
2018-04-24T21:14:34.867Z,3.73
2018-04-24T21:17:03.449Z,4.00
2018-04-24T21:19:30.975Z,3.87
2018-04-24T21:21:59.403Z,3.73
2018-04-24T21:24:27.891Z,3.77
2018-04-24T21:26:55.454Z,4.07
2018-04-24T21:29:22.979Z,3.60
2018-04-24T21:31:50.472Z,3.40
2018-04-24T21:34:17.963Z,3.47
2018-04-24T21:36:45.555Z,3.97
2018-04-24T21:39:13.070Z,3.97
2018-04-24T21:41:40.630Z,3.60
2018-04-24T21:44:08.120Z,3.87
2018-04-24T21:46:36.370Z,3.70
2018-04-24T21:49:03.985Z,4.03
2018-04-24T21:51:32.411Z,4.23
2018-04-24T21:53:59.977Z,3.93
2018-04-24T21:56:27.508Z,4.00
2018-04-24T21:58:55.016Z,3.70
2018-04-24T22:01:23.340Z,4.77
2018-04-24T22:03:50.868Z,4.30
2018-04-24T22:06:18.435Z,4.40
2018-04-24T22:08:47.644Z,4.03
2018-04-24T22:11:16.896Z,3.97
2018-04-24T22:13:44.424Z,4.10
2018-04-24T22:16:13.750Z,4.60
2018-04-24T22:18:42.237Z,5.20
2018-04-24T22:21:09.866Z,5.10
2018-04-24T22:23:37.400Z,4.40
2018-04-24T22:26:04.934Z,4.23
2018-04-24T22:28:32.458Z,4.30
2018-04-24T22:31:01.933Z,4.40
2018-04-24T22:33:29.441Z,4.00
2018-04-24T22:35:56.961Z,4.37
2018-04-24T22:38:24.519Z,4.37
2018-04-24T22:40:52.018Z,4.17
2018-04-24T22:43:19.602Z,4.47
2018-04-24T22:45:49.854Z,4.60
2018-04-24T22:48:18.293Z,4.43
2018-04-24T22:50:45.955Z,4.17
2018-04-24T22:53:13.595Z,4.63
2018-04-24T22:55:41.189Z,4.33
2018-04-24T22:58:11.406Z,3.90
2018-04-24T23:00:39.818Z,3.97
2018-04-24T23:03:08.124Z,3.90
2018-04-24T23:05:35.718Z,3.97
2018-04-24T23:08:04.110Z,4.20
2018-04-24T23:10:43.643Z,4.77
2018-04-24T23:13:23.995Z,4.17
2018-04-24T23:16:03.461Z,4.20
2018-04-24T23:18:42.828Z,3.80
2018-04-24T23:21:09.848Z,3.53
2018-04-24T23:23:37.400Z,4.30
2018-04-24T23:26:05.796Z,4.13
2018-04-24T23:28:33.443Z,4.33
2018-04-24T23:31:02.012Z,3.70
2018-04-24T23:33:48.257Z,4.00
2018-04-24T23:36:16.577Z,4.03
2018-04-24T23:38:44.098Z,4.23
2018-04-24T23:41:11.710Z,4.30
2018-04-24T23:43:39.240Z,4.03
2018-04-24T23:46:06.798Z,4.60
2018-04-24T23:48:35.273Z,4.67
2018-04-24T23:51:03.580Z,5.10
2018-04-24T23:53:31.108Z,5.27
2018-04-24T23:55:58.643Z,4.50
2018-04-24T23:58:26.176Z,4.73
